createdAt,value
2018-07-28T00:02:06.999Z,25.09
2018-07-28T00:05:31.759Z,25.14
2018-07-28T00:08:56.527Z,24.96
2018-07-28T00:12:21.287Z,24.68
2018-07-28T00:15:46.208Z,24.68
2018-07-28T00:19:10.886Z,24.63
2018-07-28T00:22:35.726Z,24.96
2018-07-28T00:26:18.231Z,24.99
2018-07-28T00:29:42.982Z,25.15
2018-07-28T00:33:07.383Z,24.85
2018-07-28T00:36:32.050Z,24.38
2018-07-28T00:39:56.858Z,23.13
2018-07-28T00:43:21.502Z,23.47
2018-07-28T00:46:46.258Z,24.80
2018-07-28T00:50:11.058Z,23.54
2018-07-28T00:53:35.768Z,23.89
2018-07-28T00:57:01.114Z,24.83
2018-07-28T01:00:25.821Z,24.82
2018-07-28T01:03:50.200Z,23.80
2018-07-28T01:07:14.976Z,24.44
2018-07-28T01:10:39.418Z,24.23
2018-07-28T01:14:04.302Z,24.65
2018-07-28T01:17:28.750Z,24.77
2018-07-28T01:20:53.497Z,23.21
2018-07-28T01:24:18.228Z,23.38
2018-07-28T01:27:43.011Z,24.45
2018-07-28T01:31:07.854Z,24.62
2018-07-28T01:34:32.617Z,23.84
2018-07-28T01:37:57.348Z,23.34
2018-07-28T01:41:22.076Z,22.83
2018-07-28T01:44:46.820Z,23.61
2018-07-28T01:48:11.647Z,24.20
2018-07-28T01:51:36.734Z,23.47
2018-07-28T01:55:01.457Z,22.52
2018-07-28T01:58:26.154Z,22.09
2018-07-28T02:01:50.925Z,22.45
2018-07-28T02:05:15.628Z,22.52
2018-07-28T02:08:40.041Z,22.31
2018-07-28T02:12:04.843Z,22.31
2018-07-28T02:15:29.652Z,22.05
2018-07-28T02:18:54.309Z,22.23
2018-07-28T02:22:18.969Z,22.05
2018-07-28T02:25:43.691Z,21.86
2018-07-28T02:29:09.872Z,22.35
2018-07-28T02:32:35.143Z,21.98
2018-07-28T02:36:00.030Z,21.79
2018-07-28T02:39:24.743Z,21.89
2018-07-28T02:42:49.456Z,21.72
2018-07-28T02:46:14.196Z,21.73
2018-07-28T02:49:38.876Z,21.59
2018-07-28T02:53:03.887Z,21.79
2018-07-28T02:56:28.239Z,21.43
2018-07-28T02:59:53.147Z,21.63
2018-07-28T03:03:17.910Z,21.40
2018-07-28T03:06:42.609Z,21.36
2018-07-28T03:10:08.230Z,22.78
2018-07-28T03:13:32.976Z,22.63
2018-07-28T03:16:57.627Z,21.98
2018-07-28T03:20:22.493Z,21.68
2018-07-28T03:25:11.657Z,21.20
2018-07-28T03:28:36.389Z,21.68
2018-07-28T03:32:01.143Z,21.56
2018-07-28T03:35:26.024Z,21.12
2018-07-28T03:38:50.833Z,21.23
2018-07-28T03:42:15.167Z,21.13
2018-07-28T03:45:39.972Z,21.09
2018-07-28T03:49:04.777Z,21.24
2018-07-28T03:52:29.088Z,20.93
2018-07-28T03:55:53.756Z,21.64
2018-07-28T03:59:18.503Z,22.01
2018-07-28T04:02:43.261Z,22.01
2018-07-28T04:06:08.043Z,21.89
2018-07-28T04:09:32.863Z,21.80
2018-07-28T04:12:57.557Z,21.37
2018-07-28T04:16:22.288Z,21.46
2018-07-28T04:19:46.966Z,21.38
2018-07-28T04:23:11.740Z,21.29
2018-07-28T04:26:36.457Z,21.37
2018-07-28T04:30:01.153Z,21.18
2018-07-28T04:33:25.983Z,21.23
2018-07-28T04:36:50.828Z,20.95
2018-07-28T04:40:15.486Z,20.69
2018-07-28T04:43:40.232Z,20.67
2018-07-28T04:47:05.093Z,20.79
2018-07-28T04:50:29.956Z,20.92
2018-07-28T04:53:54.685Z,21.23
2018-07-28T04:57:19.402Z,21.88
2018-07-28T05:00:44.072Z,21.74
2018-07-28T05:04:08.948Z,22.43
2018-07-28T05:07:33.820Z,23.10
2018-07-28T05:10:58.389Z,22.08
2018-07-28T05:14:23.217Z,23.86
2018-07-28T05:17:48.065Z,23.14
2018-07-28T05:21:13.159Z,22.81
2018-07-28T05:24:38.455Z,22.70
2018-07-28T05:28:03.160Z,24.03
2018-07-28T05:31:27.913Z,23.93
2018-07-28T05:34:52.594Z,24.01
2018-07-28T05:38:17.259Z,24.07
2018-07-28T05:41:42.030Z,24.20
2018-07-28T05:45:07.488Z,24.21
2018-07-28T05:48:32.247Z,24.43
2018-07-28T05:51:57.121Z,24.44
2018-07-28T05:55:21.878Z,24.53
2018-07-28T05:58:46.659Z,24.07
2018-07-28T06:02:11.357Z,24.72
2018-07-28T06:05:37.511Z,24.71
2018-07-28T06:09:02.173Z,24.34
2018-07-28T06:12:26.920Z,24.10
2018-07-28T06:15:51.707Z,24.61
2018-07-28T06:19:16.335Z,24.14
2018-07-28T06:22:41.757Z,24.61
2018-07-28T06:26:06.606Z,24.46
2018-07-28T06:29:30.952Z,24.34
2018-07-28T06:32:55.727Z,24.27
2018-07-28T06:36:20.602Z,24.33
2018-07-28T06:39:46.051Z,24.07
2018-07-28T06:43:11.419Z,24.07
2018-07-28T06:46:36.223Z,24.05
2018-07-28T06:50:01.321Z,24.18
2018-07-28T06:53:26.032Z,24.37
2018-07-28T06:56:50.767Z,24.36
2018-07-28T07:00:15.647Z,24.05
2018-07-28T07:03:40.409Z,23.92
2018-07-28T07:07:06.107Z,23.42
2018-07-28T07:10:31.558Z,22.12
2018-07-28T07:13:56.319Z,21.83
2018-07-28T07:17:21.683Z,20.36
2018-07-28T07:20:46.385Z,21.58
2018-07-28T07:24:11.218Z,23.23
2018-07-28T07:27:35.570Z,23.29
2018-07-28T07:31:00.722Z,22.21
2018-07-28T07:34:25.491Z,21.45
2018-07-28T07:37:50.355Z,21.03
2018-07-28T07:41:15.084Z,23.09
2018-07-28T07:44:39.487Z,23.90
2018-07-28T07:48:03.925Z,23.48
2018-07-28T07:51:29.353Z,24.06
2018-07-28T07:54:54.051Z,23.84
2018-07-28T07:58:18.887Z,22.09
2018-07-28T08:01:44.236Z,23.65
2018-07-28T08:05:09.278Z,23.45
2018-07-28T08:08:37.292Z,23.27
2018-07-28T08:12:02.773Z,23.28
2018-07-28T08:15:29.729Z,23.61
2018-07-28T08:18:54.922Z,23.54
2018-07-28T08:22:21.096Z,23.44
2018-07-28T08:25:45.866Z,23.41
2018-07-28T08:29:10.660Z,23.53
2018-07-28T08:32:35.452Z,23.61
2018-07-28T08:36:00.316Z,23.49
2018-07-28T08:39:25.095Z,23.87
2018-07-28T08:42:50.024Z,24.00
2018-07-28T08:46:16.562Z,24.18
2018-07-28T08:49:41.463Z,24.28
2018-07-28T08:53:06.246Z,24.55
2018-07-28T08:56:30.904Z,24.79
2018-07-28T08:59:56.503Z,24.73
2018-07-28T09:03:21.454Z,25.13
2018-07-28T09:06:46.479Z,25.30
2018-07-28T09:10:11.171Z,25.46
2018-07-28T09:13:36.338Z,25.49
2018-07-28T09:17:01.842Z,25.59
2018-07-28T09:20:26.620Z,25.74
2018-07-28T09:23:51.389Z,25.65
2018-07-28T09:27:15.757Z,25.70
2018-07-28T09:30:40.587Z,25.96
2018-07-28T09:34:05.686Z,26.00
2018-07-28T09:37:30.179Z,26.15
2018-07-28T09:40:54.725Z,26.08
2018-07-28T09:44:19.181Z,26.40
2018-07-28T09:47:43.964Z,26.12
2018-07-28T09:51:09.023Z,25.99
2018-07-28T09:54:33.742Z,26.16
2018-07-28T09:57:58.749Z,26.02
2018-07-28T10:01:24.327Z,26.02
2018-07-28T10:04:49.171Z,26.02
2018-07-28T10:08:13.893Z,25.93
2018-07-28T10:11:38.596Z,25.92
2018-07-28T10:15:03.034Z,25.93
2018-07-28T10:18:27.784Z,25.60
2018-07-28T11:39:08.756Z,24.09
2018-07-28T11:42:50.597Z,24.74
2018-07-28T11:46:15.430Z,24.51
2018-07-28T11:49:40.194Z,24.07
2018-07-28T11:53:05.024Z,24.06
2018-07-28T11:56:29.711Z,23.36
2018-07-28T11:59:54.423Z,23.50
2018-07-28T12:03:19.178Z,23.14
2018-07-28T12:06:43.925Z,23.50
2018-07-28T12:10:09.811Z,23.12
2018-07-28T12:13:34.505Z,22.93
2018-07-28T12:16:59.225Z,23.73
2018-07-28T12:20:23.938Z,23.47
2018-07-28T12:23:48.693Z,22.96
2018-07-28T12:27:13.380Z,22.71
2018-07-28T12:30:38.063Z,23.22
2018-07-28T12:34:02.742Z,22.99
2018-07-28T12:37:27.395Z,22.91
2018-07-28T12:40:52.064Z,23.13
2018-07-28T12:44:16.797Z,23.29
2018-07-28T12:47:41.496Z,23.19
2018-07-28T12:51:06.225Z,23.57
2018-07-28T12:54:30.931Z,23.44
2018-07-28T12:57:55.581Z,23.19
2018-07-28T13:01:20.304Z,23.00
2018-07-28T13:04:44.677Z,22.90
2018-07-28T13:08:09.400Z,23.09
2018-07-28T13:11:34.051Z,23.25
2018-07-28T13:14:58.769Z,23.59
2018-07-28T13:18:23.428Z,23.31
2018-07-28T13:21:48.189Z,23.30
2018-07-28T13:25:12.551Z,23.04
2018-07-28T13:28:37.274Z,23.14
2018-07-28T13:32:01.972Z,23.35
2018-07-28T13:35:26.420Z,23.54
2018-07-28T13:38:51.141Z,22.84
2018-07-28T13:42:15.607Z,22.46
2018-07-28T13:45:40.298Z,22.83
2018-07-28T13:49:05.357Z,22.40
2018-07-28T13:52:31.015Z,22.43
2018-07-28T13:55:55.703Z,22.31
2018-07-28T13:59:20.457Z,22.27
2018-07-28T14:02:45.168Z,22.26
2018-07-28T14:06:10.052Z,22.36
2018-07-28T14:09:34.646Z,22.62
2018-07-28T14:12:59.449Z,22.85
2018-07-28T14:16:24.237Z,22.59
2018-07-28T14:19:48.995Z,22.64
2018-07-28T14:23:13.665Z,23.45
2018-07-28T14:26:38.339Z,22.97
2018-07-28T14:30:03.054Z,23.92
2018-07-28T14:33:27.742Z,23.25
2018-07-28T14:36:52.484Z,23.62
2018-07-28T14:40:17.333Z,23.67
2018-07-28T14:43:41.747Z,23.31
2018-07-28T14:47:07.571Z,23.59
2018-07-28T14:50:32.498Z,23.87
2018-07-28T14:53:57.382Z,24.03
2018-07-28T14:57:22.293Z,23.85
2018-07-28T15:00:47.092Z,23.62
2018-07-28T15:04:11.799Z,23.69
2018-07-28T15:07:36.477Z,23.76
2018-07-28T15:11:01.213Z,23.87
2018-07-28T15:14:25.881Z,24.01
2018-07-28T15:17:50.628Z,24.22
2018-07-28T15:21:15.329Z,24.46
2018-07-28T15:24:39.777Z,24.61
2018-07-28T15:28:04.546Z,23.59
2018-07-28T15:31:29.275Z,23.87
2018-07-28T15:34:53.924Z,23.86
2018-07-28T15:38:18.641Z,23.85
2018-07-28T15:41:43.348Z,24.32
2018-07-28T15:45:08.016Z,24.73
2018-07-28T15:48:32.695Z,24.74
2018-07-28T15:51:57.384Z,24.61
2018-07-28T15:55:22.232Z,24.68
2018-07-28T15:58:47.011Z,24.18
2018-07-28T16:02:11.826Z,24.52
2018-07-28T16:05:36.612Z,24.76
2018-07-28T16:09:01.270Z,24.46
2018-07-28T16:12:26.006Z,24.45
2018-07-28T16:15:50.712Z,24.80
2018-07-28T16:19:15.381Z,24.74
2018-07-28T16:22:40.191Z,24.69
2018-07-28T16:26:04.956Z,24.78
2018-07-28T16:29:29.654Z,24.56
2018-07-28T16:32:54.347Z,24.27
2018-07-28T16:36:19.008Z,24.41
2018-07-28T16:39:43.649Z,24.72
2018-07-28T16:43:08.350Z,24.52
2018-07-28T16:46:33.068Z,24.67
2018-07-28T16:49:57.795Z,24.39
2018-07-28T16:53:22.700Z,24.28
2018-07-28T16:56:47.065Z,24.24
2018-07-28T17:00:11.786Z,24.22
2018-07-28T17:03:36.548Z,24.51
2018-07-28T17:07:00.968Z,24.59
2018-07-28T17:10:25.646Z,25.20
2018-07-28T17:13:50.566Z,25.53
2018-07-28T17:17:15.242Z,25.99
2018-07-28T17:20:39.592Z,25.99
2018-07-28T17:24:04.283Z,25.57
2018-07-28T17:27:28.960Z,25.51
2018-07-28T17:30:53.785Z,25.57
2018-07-28T17:34:18.490Z,25.40
2018-07-28T17:37:43.246Z,25.57
2018-07-28T17:41:08.403Z,26.45
2018-07-28T17:44:32.826Z,25.93
2018-07-28T17:47:57.493Z,26.16
2018-07-28T17:51:22.283Z,26.00
2018-07-28T17:54:46.741Z,25.73
2018-07-28T17:58:11.521Z,25.60
2018-07-28T18:01:36.235Z,26.40
2018-07-28T18:05:01.027Z,26.11
2018-07-28T18:08:25.865Z,25.87
2018-07-28T18:11:50.563Z,25.67
2018-07-28T18:15:15.315Z,25.73
2018-07-28T18:18:39.656Z,24.30
2018-07-28T18:22:04.364Z,24.75
2018-07-28T18:25:30.021Z,24.61
2018-07-28T18:28:54.346Z,24.87
2018-07-28T18:32:19.067Z,24.11
2018-07-28T18:35:44.016Z,24.35
2018-07-28T18:39:10.857Z,24.06
2018-07-28T18:42:35.618Z,23.71
2018-07-28T18:46:00.013Z,23.65
2018-07-28T18:49:24.400Z,23.33
2018-07-28T18:52:49.161Z,23.70
2018-07-28T18:56:13.890Z,23.81
2018-07-28T18:59:38.596Z,24.40
2018-07-28T19:03:03.332Z,24.30
2018-07-28T19:06:28.029Z,24.54
2018-07-28T19:09:53.377Z,24.65
2018-07-28T19:13:23.251Z,24.61
2018-07-28T19:16:48.032Z,24.63
2018-07-28T19:20:12.754Z,24.45
2018-07-28T19:23:42.557Z,24.30
2018-07-28T19:27:06.996Z,24.46
2018-07-28T19:30:31.706Z,24.69
2018-07-28T19:33:56.462Z,24.56
2018-07-28T19:37:23.733Z,24.73
2018-07-28T19:40:48.436Z,23.60
2018-07-28T19:44:13.641Z,22.80
2018-07-28T19:47:38.291Z,24.44
2018-07-28T19:51:03.015Z,23.20
2018-07-28T19:54:27.778Z,23.76
2018-07-28T19:57:52.415Z,24.11
2018-07-28T20:01:17.064Z,23.43
2018-07-28T20:04:41.835Z,24.26
2018-07-28T20:08:06.604Z,23.19
2018-07-28T20:11:31.273Z,22.78
2018-07-28T20:14:55.951Z,24.38
2018-07-28T20:18:20.701Z,24.48
2018-07-28T20:21:45.370Z,24.18
2018-07-28T20:25:10.148Z,24.43
2018-07-28T20:28:34.869Z,24.32
2018-07-28T20:31:59.644Z,22.93
2018-07-28T20:35:24.284Z,22.88
2018-07-28T20:38:48.962Z,23.95
2018-07-28T20:42:13.296Z,22.13
2018-07-28T20:45:37.968Z,24.10
2018-07-28T20:49:02.709Z,23.76
2018-07-28T20:52:27.385Z,22.43
2018-07-28T20:55:52.124Z,23.79
2018-07-28T20:59:16.836Z,24.18
2018-07-28T21:02:42.601Z,23.22
2018-07-28T21:06:07.278Z,24.30
2018-07-28T21:09:32.089Z,22.62
2018-07-28T21:12:56.797Z,23.45
2018-07-28T21:16:21.463Z,23.69
2018-07-28T21:19:46.302Z,22.73
2018-07-28T21:23:11.052Z,22.99
2018-07-28T21:26:35.726Z,24.22
2018-07-28T21:30:00.605Z,24.25
2018-07-28T21:33:24.987Z,24.09
2018-07-28T21:36:49.666Z,23.40
2018-07-28T21:40:14.355Z,22.08
2018-07-28T21:43:39.067Z,21.82
2018-07-28T21:47:05.222Z,22.03
2018-07-28T21:50:31.149Z,22.05
2018-07-28T21:53:56.494Z,21.86
2018-07-28T21:57:22.508Z,23.49
2018-07-28T22:01:02.842Z,22.49
2018-07-28T22:04:30.294Z,21.84
2018-07-28T22:07:55.761Z,22.68
2018-07-28T22:11:21.310Z,23.57
2018-07-28T22:14:46.922Z,23.97
2018-07-28T22:18:12.848Z,22.31
2018-07-28T22:21:37.583Z,21.60
2018-07-28T22:25:01.965Z,23.11
2018-07-28T22:28:26.728Z,23.58
2018-07-28T22:31:51.433Z,23.96
2018-07-28T22:35:16.126Z,22.90
2018-07-28T22:38:40.918Z,22.26
2018-07-28T22:42:05.666Z,23.48
2018-07-28T22:45:30.334Z,22.72
2018-07-28T22:48:55.159Z,22.16
2018-07-28T22:52:20.032Z,22.37
2018-07-28T22:55:44.776Z,23.60
2018-07-28T22:59:09.479Z,23.90
2018-07-28T23:02:33.929Z,23.23
2018-07-28T23:05:58.634Z,22.71
2018-07-28T23:09:23.295Z,23.85
2018-07-28T23:12:48.820Z,23.74
2018-07-28T23:16:13.470Z,23.84
2018-07-28T23:19:38.191Z,23.73
2018-07-28T23:23:02.961Z,23.49
2018-07-28T23:26:27.708Z,23.90
2018-07-28T23:29:52.507Z,23.84
2018-07-28T23:33:17.287Z,23.46
2018-07-28T23:36:41.941Z,22.37
2018-07-28T23:40:06.524Z,23.59
2018-07-28T23:43:31.253Z,23.80
2018-07-28T23:46:55.905Z,23.64
2018-07-28T23:50:20.578Z,23.77
2018-07-28T23:53:45.212Z,23.76
2018-07-28T23:57:09.932Z,23.68
